createdAt,value
2018-06-11T00:01:40.988Z,93434.92
2018-06-11T00:04:09.777Z,93426.87
2018-06-11T00:06:38.553Z,93426.95
2018-06-11T00:09:08.511Z,93431.87
2018-06-11T00:11:37.581Z,93430.05
2018-06-11T00:14:06.391Z,93433.03
2018-06-11T00:16:35.163Z,93436.53
2018-06-11T00:19:04.081Z,93431.83
2018-06-11T00:21:32.904Z,93430.67
2018-06-11T00:24:01.695Z,93429.85
2018-06-11T00:26:30.498Z,93431.16
2018-06-11T00:28:59.269Z,93433.89
2018-06-11T00:31:28.017Z,93442.53
2018-06-11T00:33:56.847Z,93443.61
2018-06-11T00:36:25.606Z,93444.17
2018-06-11T00:38:54.414Z,93440.37
2018-06-11T00:41:23.254Z,93440.48
2018-06-11T00:43:52.084Z,93444.54
2018-06-11T00:46:20.851Z,93438.66
2018-06-11T00:48:49.608Z,93441.30
2018-06-11T00:51:18.419Z,93441.19
2018-06-11T00:53:47.216Z,93444.54
2018-06-11T00:56:16.003Z,93439.77
2018-06-11T00:58:44.765Z,93443.91
2018-06-11T01:01:13.500Z,93443.20
2018-06-11T01:03:42.326Z,93446.41
2018-06-11T01:06:11.194Z,93442.16
2018-06-11T01:08:39.991Z,93436.71
2018-06-11T01:11:08.765Z,93432.57
2018-06-11T01:13:37.613Z,93429.22
2018-06-11T01:16:06.439Z,93423.70
2018-06-11T01:18:35.198Z,93425.68
2018-06-11T01:21:03.933Z,93419.64
2018-06-11T01:23:32.708Z,93421.02
2018-06-11T01:26:01.465Z,93421.20
2018-06-11T01:28:30.327Z,93425.67
2018-06-11T01:30:59.093Z,93424.56
2018-06-11T01:33:27.853Z,93424.14
2018-06-11T01:35:56.688Z,93426.41
2018-06-11T01:38:25.466Z,93422.72
2018-06-11T01:40:54.198Z,93421.19
2018-06-11T01:43:22.958Z,93420.22
2018-06-11T01:45:51.731Z,93418.50
2018-06-11T01:48:20.497Z,93419.69
2018-06-11T01:50:49.335Z,93419.45
2018-06-11T01:53:18.078Z,93420.61
2018-06-11T01:55:46.823Z,93417.11
2018-06-11T01:58:15.675Z,93424.25
2018-06-11T02:00:44.440Z,93422.45
2018-06-11T02:03:13.231Z,93426.44
2018-06-11T02:05:42.009Z,93425.73
2018-06-11T02:08:10.750Z,93427.76
2018-06-11T02:10:39.515Z,93434.71
2018-06-11T02:13:08.290Z,93429.94
2018-06-11T02:15:37.059Z,93428.44
2018-06-11T02:18:06.097Z,93439.19
2018-06-11T02:20:34.944Z,93439.56
2018-06-11T02:23:03.688Z,93437.58
2018-06-11T02:25:32.523Z,93440.39
2018-06-11T02:28:01.270Z,93438.86
2018-06-11T02:30:30.043Z,93442.28
2018-06-11T02:32:58.808Z,93430.10
2018-06-11T02:35:27.644Z,93433.97
2018-06-11T02:37:56.438Z,93433.63
2018-06-11T02:40:25.211Z,93421.33
2018-06-11T02:42:54.038Z,93440.47
2018-06-11T02:45:22.790Z,93442.10
2018-06-11T02:47:51.537Z,93443.27
2018-06-11T02:50:20.379Z,93441.66
2018-06-11T02:52:49.139Z,93443.19
2018-06-11T02:55:17.914Z,93445.52
2018-06-11T02:57:46.753Z,93441.53
2018-06-11T03:00:15.540Z,93448.74
2018-06-11T03:02:44.314Z,93448.17
2018-06-11T03:05:13.127Z,93448.81
2018-06-11T03:07:41.880Z,93452.27
2018-06-11T03:10:10.654Z,93452.27
2018-06-11T03:12:39.471Z,93452.16
2018-06-11T03:15:08.241Z,93453.20
2018-06-11T03:17:37.004Z,93448.66
2018-06-11T03:20:05.940Z,93453.89
2018-06-11T03:22:34.739Z,93446.56
2018-06-11T03:25:03.658Z,93452.48
2018-06-11T03:27:32.418Z,93446.87
2018-06-11T03:30:01.165Z,93442.34
2018-06-11T03:32:29.924Z,93440.52
2018-06-11T03:34:58.704Z,93438.27
2018-06-11T03:37:27.512Z,93437.45
2018-06-11T03:39:56.283Z,93439.69
2018-06-11T03:42:25.155Z,93434.23
2018-06-11T03:44:53.925Z,93440.27
2018-06-11T03:47:22.697Z,93437.61
2018-06-11T03:49:51.486Z,93434.09
2018-06-11T03:52:20.255Z,93436.63
2018-06-11T03:54:48.995Z,93436.76
2018-06-11T03:57:17.864Z,93428.38
2018-06-11T03:59:46.615Z,93438.08
2018-06-11T04:02:15.401Z,93442.06
2018-06-11T04:04:44.288Z,93448.46
2018-06-11T04:07:13.074Z,93447.86
2018-06-11T04:09:42.833Z,93454.64
2018-06-11T04:12:11.593Z,93454.10
2018-06-11T04:14:40.368Z,93453.71
2018-06-11T04:17:09.102Z,93459.13
2018-06-11T04:19:37.890Z,93459.55
2018-06-11T04:22:06.845Z,93454.81
2018-06-11T04:24:35.639Z,93443.98
2018-06-11T04:27:04.530Z,93441.16
2018-06-11T04:29:33.380Z,93439.56
2018-06-11T04:32:02.328Z,93441.70
2018-06-11T04:34:31.119Z,93445.77
2018-06-11T04:36:59.995Z,93443.11
2018-06-11T04:39:28.787Z,93444.03
2018-06-11T04:41:57.609Z,93440.57
2018-06-11T04:44:26.389Z,93444.44
2018-06-11T04:46:55.181Z,93449.88
2018-06-11T04:49:24.075Z,93453.01
2018-06-11T04:51:52.965Z,93450.69
2018-06-11T04:54:21.894Z,93454.37
2018-06-11T04:56:50.663Z,93451.59
2018-06-11T04:59:19.571Z,93466.45
2018-06-11T05:01:48.364Z,93464.16
2018-06-11T05:04:17.161Z,93462.09
2018-06-11T05:06:46.045Z,93465.09
2018-06-11T05:09:14.860Z,93467.08
2018-06-11T05:11:43.663Z,93470.14
2018-06-11T05:14:12.465Z,93469.66
2018-06-11T05:16:41.274Z,93476.87
2018-06-11T05:19:10.032Z,93474.62
2018-06-11T05:21:38.870Z,93474.94
2018-06-11T05:24:07.642Z,93482.74
2018-06-11T05:26:36.431Z,93485.04
2018-06-11T05:29:05.432Z,93486.91
2018-06-11T05:31:34.220Z,93491.19
2018-06-11T05:34:03.076Z,93499.59
2018-06-11T05:36:31.857Z,93499.98
2018-06-11T05:39:00.640Z,93508.84
2018-06-11T05:41:29.487Z,93514.80
2018-06-11T05:43:58.299Z,93516.09
2018-06-11T05:46:27.120Z,93525.72
2018-06-11T05:48:55.897Z,93527.47
2018-06-11T05:51:24.770Z,93527.69
2018-06-11T05:53:53.610Z,93530.22
2018-06-11T05:56:22.519Z,93532.95
2018-06-11T05:58:51.308Z,93526.47
2018-06-11T06:01:20.083Z,93529.00
2018-06-11T06:03:48.959Z,93529.47
2018-06-11T06:06:17.756Z,93528.59
2018-06-11T06:08:46.587Z,93526.38
2018-06-11T06:11:15.382Z,93521.77
2018-06-11T06:13:44.192Z,93520.95
2018-06-11T06:16:12.973Z,93520.72
2018-06-11T06:18:41.858Z,93519.97
2018-06-11T06:21:10.635Z,93530.13
2018-06-11T06:23:39.447Z,93530.59
2018-06-11T06:26:08.255Z,93526.36
2018-06-11T06:28:37.009Z,93525.96
2018-06-11T06:31:05.827Z,93527.19
2018-06-11T06:33:34.609Z,93527.70
2018-06-11T06:36:03.577Z,93531.23
2018-06-11T06:38:32.353Z,93525.88
2018-06-11T06:41:01.261Z,93524.63
2018-06-11T06:43:30.047Z,93523.27
2018-06-11T06:45:58.824Z,93522.17
2018-06-11T06:48:27.583Z,93513.19
2018-06-11T06:50:56.348Z,93519.14
2018-06-11T06:53:25.107Z,93519.28
2018-06-11T06:55:53.939Z,93513.98
2018-06-11T06:58:22.824Z,93514.55
2018-06-11T07:00:51.603Z,93514.17
2018-06-11T07:03:20.471Z,93516.55
2018-06-11T07:05:49.247Z,93513.63
2018-06-11T07:08:18.044Z,93510.38
2018-06-11T07:10:46.881Z,93509.59
2018-06-11T07:13:15.669Z,93506.42
2018-06-11T07:15:44.412Z,93498.30
2018-06-11T07:18:13.207Z,93507.03
2018-06-11T07:20:42.032Z,93507.06
2018-06-11T07:23:10.811Z,93501.36
2018-06-11T07:25:39.656Z,93500.73
2018-06-11T07:28:08.458Z,93495.94
2018-06-11T07:30:37.342Z,93502.94
2018-06-11T07:33:06.122Z,93504.55
2018-06-11T07:35:34.907Z,93500.07
2018-06-11T07:38:03.724Z,93507.95
2018-06-11T07:40:32.496Z,93499.27
2018-06-11T07:43:01.915Z,93498.92
2018-06-11T07:45:30.648Z,93497.30
2018-06-11T07:47:59.559Z,93491.39
2018-06-11T07:50:28.344Z,93494.02
2018-06-11T07:52:57.135Z,93486.04
2018-06-11T07:55:25.971Z,93489.25
2018-06-11T07:57:54.720Z,93488.19
2018-06-11T08:00:23.526Z,93493.77
2018-06-11T08:02:52.344Z,93485.39
2018-06-11T08:05:21.128Z,93485.72
2018-06-11T08:07:49.968Z,93491.08
2018-06-11T08:10:18.844Z,93483.66
2018-06-11T08:12:47.603Z,93481.47
2018-06-11T08:15:16.377Z,93487.56
2018-06-11T08:17:45.164Z,93485.30
2018-06-11T08:20:14.006Z,93485.63
2018-06-11T08:22:42.824Z,93483.98
2018-06-11T08:25:11.647Z,93481.89
2018-06-11T08:27:40.417Z,93479.64
2018-06-11T08:30:09.228Z,93486.86
2018-06-11T08:32:38.139Z,93485.09
2018-06-11T08:35:07.105Z,93482.69
2018-06-11T08:37:35.873Z,93486.41
2018-06-11T08:40:04.795Z,93484.63
2018-06-11T08:42:33.598Z,93488.48
2018-06-11T08:45:02.385Z,93488.90
2018-06-11T08:47:31.253Z,93484.05
2018-06-11T08:50:00.071Z,93488.84
2018-06-11T08:52:28.866Z,93481.65
2018-06-11T08:54:57.722Z,93488.89
2018-06-11T08:57:26.544Z,93486.66
2018-06-11T08:59:55.428Z,93484.94
2018-06-11T09:02:24.173Z,93486.70
2018-06-11T09:04:52.989Z,93485.28
2018-06-11T09:07:21.775Z,93493.49
2018-06-11T09:09:50.594Z,93484.45
2018-06-11T09:12:19.424Z,93487.36
2018-06-11T09:14:48.166Z,93484.14
2018-06-11T09:17:17.075Z,93491.55
2018-06-11T09:19:45.836Z,93492.98
2018-06-11T09:22:14.621Z,93488.80
2018-06-11T09:24:43.411Z,93487.98
2018-06-11T09:27:12.201Z,93482.84
2018-06-11T09:29:40.956Z,93479.95
2018-06-11T09:32:09.786Z,93483.17
2018-06-11T09:34:38.570Z,93478.83
2018-06-11T09:37:07.407Z,93487.67
2018-06-11T09:39:36.274Z,93483.19
2018-06-11T09:42:05.099Z,93481.08
2018-06-11T09:44:33.959Z,93478.66
2018-06-11T09:47:02.731Z,93476.39
2018-06-11T09:49:31.563Z,93479.32
2018-06-11T09:52:00.364Z,93477.70
2018-06-11T09:54:29.207Z,93478.34
2018-06-11T09:56:58.006Z,93475.13
2018-06-11T09:59:26.743Z,93475.72
2018-06-11T10:01:55.596Z,93473.28
2018-06-11T10:04:24.375Z,93465.67
2018-06-11T10:06:53.131Z,93470.97
2018-06-11T10:09:21.916Z,93468.22
2018-06-11T10:11:50.656Z,93468.41
2018-06-11T10:14:19.464Z,93457.43
2018-06-11T10:16:48.297Z,93467.89
2018-06-11T10:19:17.082Z,93465.14
2018-06-11T10:21:45.905Z,93458.52
2018-06-11T10:24:14.832Z,93460.06
2018-06-11T10:26:43.589Z,93454.91
2018-06-11T10:29:12.423Z,93452.83
2018-06-11T10:31:41.174Z,93454.50
2018-06-11T10:34:09.944Z,93453.61
2018-06-11T10:36:38.692Z,93458.73
2018-06-11T10:39:08.583Z,93452.58
2018-06-11T10:41:37.509Z,93458.70
2018-06-11T10:44:06.344Z,93446.45
2018-06-11T10:46:35.230Z,93452.69
2018-06-11T10:49:04.023Z,93449.16
2018-06-11T10:51:32.811Z,93442.75
2018-06-11T10:54:01.611Z,93444.17
2018-06-11T10:56:30.355Z,93437.23
2018-06-11T10:58:59.137Z,93430.48
2018-06-11T11:01:27.939Z,93434.36
2018-06-11T11:03:56.816Z,93427.27
2018-06-11T11:06:25.643Z,93425.44
2018-06-11T11:08:54.449Z,93433.09
2018-06-11T11:11:23.217Z,93425.44
2018-06-11T11:13:52.001Z,93409.30
2018-06-11T11:16:20.783Z,93408.49
2018-06-11T11:18:49.600Z,93410.84
2018-06-11T11:21:18.383Z,93407.04
2018-06-11T11:23:47.120Z,93405.72
2018-06-11T11:26:15.921Z,93422.25
2018-06-11T11:28:44.704Z,93409.86
2018-06-11T11:31:13.587Z,93406.08
2018-06-11T11:33:42.397Z,93403.66
2018-06-11T11:36:11.237Z,93398.02
2018-06-11T11:38:39.996Z,93400.70
2018-06-11T11:41:08.768Z,93400.44
2018-06-11T11:43:37.534Z,93393.47
2018-06-11T11:46:06.300Z,93392.22
2018-06-11T11:48:35.065Z,93380.70
2018-06-11T11:51:03.946Z,93388.41
2018-06-11T11:53:32.772Z,93389.19
2018-06-11T11:56:01.564Z,93384.32
2018-06-11T11:58:30.443Z,93385.48
2018-06-11T12:00:59.252Z,93382.80
2018-06-11T12:03:28.017Z,93379.75
2018-06-11T12:05:56.846Z,93379.47
2018-06-11T12:08:25.644Z,93375.48
2018-06-11T12:10:54.412Z,93377.08
2018-06-11T12:13:23.166Z,93370.20
2018-06-11T12:15:51.961Z,93372.41
2018-06-11T12:18:20.752Z,93364.70
2018-06-11T12:20:49.630Z,93365.19
2018-06-11T12:23:18.400Z,93352.00
2018-06-11T12:25:47.163Z,93370.89
2018-06-11T12:28:16.000Z,93380.23
2018-06-11T12:30:44.826Z,93375.73
2018-06-11T12:33:13.673Z,93367.06
2018-06-11T12:35:42.447Z,93362.79
2018-06-11T12:38:11.308Z,93363.46
2018-06-11T12:40:40.092Z,93360.78
2018-06-11T12:43:08.884Z,93361.88
2018-06-11T12:45:37.649Z,93361.62
2018-06-11T12:48:06.454Z,93357.77
2018-06-11T12:50:35.229Z,93358.64
2018-06-11T12:53:04.114Z,93349.74
2018-06-11T12:55:32.968Z,93347.02
2018-06-11T12:58:01.793Z,93339.67
2018-06-11T13:00:30.585Z,93330.72
2018-06-11T13:02:59.352Z,93332.95
2018-06-11T13:05:28.160Z,93327.87
2018-06-11T13:07:56.914Z,93316.95
2018-06-11T13:10:25.723Z,93320.61
2018-06-11T13:12:54.530Z,93320.03
2018-06-11T13:15:23.303Z,93316.50
2018-06-11T13:17:52.046Z,93318.69
2018-06-11T13:20:20.818Z,93316.21
2018-06-11T13:22:49.742Z,93331.89
2018-06-11T13:25:18.517Z,93317.75
2018-06-11T13:27:47.312Z,93316.23
2018-06-11T13:30:16.072Z,93319.50
2018-06-11T13:32:44.854Z,93320.42
2018-06-11T13:35:13.621Z,93314.84
2018-06-11T13:37:42.491Z,93311.93
2018-06-11T13:40:11.287Z,93322.14
2018-06-11T13:42:40.055Z,93318.67
2018-06-11T13:45:08.938Z,93311.77
2018-06-11T13:47:37.723Z,93306.80
2018-06-11T13:50:06.627Z,93304.84
2018-06-11T13:52:35.444Z,93304.91
2018-06-11T13:55:04.285Z,93306.89
2018-06-11T13:57:33.073Z,93310.41
2018-06-11T14:00:01.958Z,93318.86
2018-06-11T14:02:30.746Z,93309.80
2018-06-11T14:04:59.558Z,93318.86
2018-06-11T14:07:28.419Z,93316.89
2018-06-11T14:09:57.163Z,93314.06
2018-06-11T14:12:25.927Z,93321.39
2018-06-11T14:14:54.763Z,93318.39
2018-06-11T14:17:23.593Z,93325.44
2018-06-11T14:19:52.376Z,93321.63
2018-06-11T14:22:21.152Z,93315.05
2018-06-11T14:24:49.922Z,93320.63
2018-06-11T14:27:18.730Z,93321.88
2018-06-11T14:29:47.556Z,93317.44
2018-06-11T14:32:16.440Z,93310.06
2018-06-11T14:34:45.237Z,93312.07
2018-06-11T14:37:14.000Z,93306.19
2018-06-11T14:39:42.779Z,93305.56
2018-06-11T14:42:11.531Z,93310.31
2018-06-11T14:44:40.460Z,93308.10
2018-06-11T14:47:09.210Z,93313.36
2018-06-11T14:49:38.027Z,93287.86
2018-06-11T14:52:06.849Z,93298.20
2018-06-11T14:54:35.620Z,93291.69
2018-06-11T14:57:04.475Z,93287.14
2018-06-11T14:59:33.269Z,93296.63
2018-06-11T15:02:02.044Z,93288.04
2018-06-11T15:04:30.808Z,93289.52
2018-06-11T15:06:59.639Z,93284.07
2018-06-11T15:09:28.618Z,93288.16
2018-06-11T15:11:57.394Z,93276.04
2018-06-11T15:14:26.646Z,93280.47
2018-06-11T15:16:55.836Z,93279.39
2018-06-11T15:19:24.607Z,93279.48
2018-06-11T15:21:53.420Z,93285.14
2018-06-11T15:24:22.187Z,93286.56
2018-06-11T15:26:50.965Z,93288.44
2018-06-11T15:29:19.810Z,93287.05
2018-06-11T15:31:48.602Z,93292.59
2018-06-11T15:34:17.703Z,93291.92
2018-06-11T15:36:46.555Z,93299.23
2018-06-11T15:39:15.327Z,93289.91
2018-06-11T15:41:44.114Z,93294.06
2018-06-11T15:44:12.937Z,93289.05
2018-06-11T15:46:41.688Z,93291.21
2018-06-11T15:49:10.482Z,93290.45
2018-06-11T15:51:39.320Z,93288.44
2018-06-11T15:54:08.171Z,93280.72
2018-06-11T15:56:36.971Z,93278.05
2018-06-11T15:59:05.850Z,93279.63
2018-06-11T16:01:34.614Z,93286.02
2018-06-11T16:04:03.453Z,93286.27
2018-06-11T16:06:32.267Z,93290.26
2018-06-11T16:09:01.020Z,93292.22
2018-06-11T16:11:29.795Z,93297.28
2018-06-11T16:13:58.562Z,93306.42
2018-06-11T16:16:27.354Z,93303.95
2018-06-11T16:18:56.209Z,93305.53
2018-06-11T16:21:25.061Z,93297.33
2018-06-11T16:23:54.071Z,93302.04
2018-06-11T16:26:22.909Z,93304.95
2018-06-11T16:28:51.680Z,93307.27
2018-06-11T16:31:20.488Z,93310.17
2018-06-11T16:33:49.301Z,93312.42
2018-06-11T16:36:18.191Z,93308.42
2018-06-11T16:38:46.959Z,93306.36
2018-06-11T16:41:15.764Z,93307.61
2018-06-11T16:43:44.730Z,93310.54
2018-06-11T16:46:13.517Z,93310.57
2018-06-11T16:48:42.304Z,93303.36
2018-06-11T16:51:11.068Z,93307.06
2018-06-11T16:53:39.861Z,93308.02
2018-06-11T16:56:08.692Z,93302.89
2018-06-11T16:58:37.615Z,93302.89
2018-06-11T17:01:06.446Z,93308.69
2018-06-11T17:03:35.220Z,93300.00
2018-06-11T17:06:04.117Z,93312.02
2018-06-11T17:08:32.904Z,93308.94
2018-06-11T17:11:01.778Z,93311.16
2018-06-11T17:13:30.607Z,93249.82
2018-06-11T17:15:59.381Z,93303.40
2018-06-11T17:18:28.174Z,93299.86
2018-06-11T17:20:56.959Z,93296.84
2018-06-11T17:23:25.821Z,93296.20
2018-06-11T17:25:54.640Z,93298.39
2018-06-11T17:28:23.582Z,93304.13
2018-06-11T17:30:52.397Z,93301.83
2018-06-11T17:33:21.232Z,93300.34
2018-06-11T17:35:50.084Z,93302.58
2018-06-11T17:38:18.903Z,93301.73
2018-06-11T17:40:47.789Z,93296.54
2018-06-11T17:43:16.535Z,93303.84
2018-06-11T17:45:45.361Z,93305.39
2018-06-11T17:48:14.163Z,93300.00
2018-06-11T17:50:43.046Z,93293.69
2018-06-11T17:53:11.896Z,93296.83
2018-06-11T17:55:40.704Z,93302.19
2018-06-11T17:58:09.583Z,93306.53
2018-06-11T18:00:38.397Z,93311.38
2018-06-11T18:03:07.246Z,93319.83
2018-06-11T18:05:36.139Z,93324.92
2018-06-11T18:08:04.962Z,93324.42
2018-06-11T18:10:33.775Z,93330.72
2018-06-11T18:13:02.636Z,93333.06
2018-06-11T18:15:31.548Z,93339.12
2018-06-11T18:18:00.322Z,93331.47
2018-06-11T18:20:29.235Z,93337.69
2018-06-11T18:22:58.025Z,93337.22
2018-06-11T18:25:26.823Z,93352.59
2018-06-11T18:27:55.709Z,93352.89
2018-06-11T18:30:24.490Z,93356.81
2018-06-11T18:32:53.334Z,93366.39
2018-06-11T18:35:22.261Z,93369.50
2018-06-11T18:37:51.089Z,93376.17
2018-06-11T18:40:19.981Z,93374.80
2018-06-11T18:42:48.994Z,93378.12
2018-06-11T18:45:17.840Z,93383.36
2018-06-11T18:47:46.699Z,93385.97
2018-06-11T18:50:15.572Z,93385.22
2018-06-11T18:52:44.372Z,93395.55
2018-06-11T18:55:13.249Z,93393.55
2018-06-11T18:57:42.167Z,93394.42
2018-06-11T19:00:11.037Z,93400.70
2018-06-11T19:02:39.889Z,93405.77
2018-06-11T19:05:08.887Z,93406.95
2018-06-11T19:07:37.694Z,93399.34
2018-06-11T19:10:07.116Z,93404.55
2018-06-11T19:12:36.875Z,93401.57
2018-06-11T19:15:05.843Z,93408.52
2018-06-11T19:17:34.676Z,93423.09
2018-06-11T19:20:03.637Z,93419.34
2018-06-11T19:22:32.436Z,93418.60
2018-06-11T19:25:01.219Z,93421.20
2018-06-11T19:27:30.100Z,93419.44
2018-06-11T19:29:58.939Z,93424.16
2018-06-11T19:32:27.834Z,93425.02
2018-06-11T19:34:56.673Z,93429.70
2018-06-11T19:37:25.495Z,93430.91
2018-06-11T19:39:54.320Z,93431.34
2018-06-11T19:42:23.225Z,93423.70
2018-06-11T19:44:52.139Z,93420.76
2018-06-11T19:47:20.953Z,93422.42
2018-06-11T19:49:49.858Z,93423.02
2018-06-11T19:52:18.687Z,93420.42
2018-06-11T19:54:47.523Z,93418.53
2018-06-11T19:57:16.351Z,93417.20
2018-06-11T19:59:45.120Z,93419.00
2018-06-11T20:02:13.987Z,93422.27
2018-06-11T20:04:42.911Z,93422.45
2018-06-11T20:07:11.726Z,93421.55
2018-06-11T20:09:40.540Z,93420.38
2018-06-11T20:12:09.485Z,93414.66
2018-06-11T20:14:38.255Z,93411.77
2018-06-11T20:17:07.139Z,93417.38
2018-06-11T20:19:35.913Z,93414.39
2018-06-11T20:22:04.744Z,93414.22
2018-06-11T20:24:33.544Z,93409.02
2018-06-11T20:27:02.424Z,93407.53
2018-06-11T20:29:31.324Z,93410.00
2018-06-11T20:32:00.123Z,93406.77
2018-06-11T20:34:28.947Z,93414.56
2018-06-11T20:36:57.734Z,93412.06
2018-06-11T20:39:26.516Z,93409.42
2018-06-11T20:41:55.302Z,93413.38
2018-06-11T20:44:24.241Z,93413.70
2018-06-11T20:46:53.023Z,93417.30
2018-06-11T20:49:21.876Z,93421.58
2018-06-11T20:51:50.664Z,93418.13
2018-06-11T20:54:19.455Z,93414.56
2018-06-11T20:56:48.253Z,93418.06
2018-06-11T20:59:17.064Z,93413.55
2018-06-11T21:01:45.885Z,93416.34
2018-06-11T21:04:14.691Z,93413.66
2018-06-11T21:06:43.595Z,93420.75
2018-06-11T21:09:12.400Z,93419.84
2018-06-11T21:11:41.273Z,93423.30
2018-06-11T21:14:10.037Z,93417.16
2018-06-11T21:16:38.828Z,93417.41
2018-06-11T21:19:07.613Z,93422.97
2018-06-11T21:21:36.414Z,93423.91
2018-06-11T21:24:05.240Z,93424.50
2018-06-11T21:26:33.991Z,93424.86
2018-06-11T21:29:02.804Z,93426.84
2018-06-11T21:31:31.566Z,93428.93
2018-06-11T21:34:00.454Z,93436.47
2018-06-11T21:36:29.238Z,93431.70
2018-06-11T21:38:58.001Z,93433.92
2018-06-11T21:41:26.768Z,93433.81
2018-06-11T21:43:55.539Z,93440.17
2018-06-11T21:46:24.328Z,93436.12
2018-06-11T21:48:53.206Z,93442.48
2018-06-11T21:51:22.025Z,93441.23
2018-06-11T21:53:50.820Z,93435.78
2018-06-11T21:56:19.652Z,93437.76
2018-06-11T21:58:48.415Z,93437.98
2018-06-11T22:01:17.245Z,93431.29
2018-06-11T22:03:46.031Z,93426.42
2018-06-11T22:06:14.824Z,93416.81
2018-06-11T22:08:43.604Z,93411.39
2018-06-11T22:11:12.408Z,93411.48
2018-06-11T22:13:41.170Z,93413.36
2018-06-11T22:16:09.950Z,93405.73
2018-06-11T22:18:38.751Z,93409.05
2018-06-11T22:21:07.535Z,93409.98
2018-06-11T22:23:36.326Z,93408.02
2018-06-11T22:26:05.109Z,93406.06
2018-06-11T22:28:33.872Z,93404.42
2018-06-11T22:31:02.694Z,93404.88
2018-06-11T22:33:31.471Z,93410.20
2018-06-11T22:36:00.235Z,93409.98
2018-06-11T22:38:29.021Z,93410.89
2018-06-11T22:40:57.883Z,93409.88
2018-06-11T22:43:26.652Z,93414.36
2018-06-11T22:45:55.456Z,93417.72
2018-06-11T22:48:24.222Z,93415.06
2018-06-11T22:50:52.981Z,93416.46
2018-06-11T22:53:21.760Z,93419.67
2018-06-11T22:55:50.549Z,93419.44
2018-06-11T22:58:19.331Z,93420.72
2018-06-11T23:00:48.099Z,93408.10
2018-06-11T23:03:17.076Z,93417.12
2018-06-11T23:05:45.872Z,93418.06
2018-06-11T23:08:14.651Z,93415.03
2018-06-11T23:10:43.434Z,93412.62
2018-06-11T23:13:12.286Z,93413.28
2018-06-11T23:15:41.079Z,93407.17
2018-06-11T23:18:09.832Z,93401.84
2018-06-11T23:20:38.596Z,93403.94
2018-06-11T23:23:07.402Z,93406.23
2018-06-11T23:25:36.219Z,93404.72
2018-06-11T23:28:05.033Z,93402.64
2018-06-11T23:30:33.798Z,93398.13
2018-06-11T23:33:02.553Z,93400.55
2018-06-11T23:35:31.350Z,93400.77
2018-06-11T23:38:00.147Z,93400.19
2018-06-11T23:40:28.915Z,93402.48
2018-06-11T23:42:57.711Z,93398.55
2018-06-11T23:45:26.535Z,93400.16
2018-06-11T23:47:55.448Z,93404.18
2018-06-11T23:50:24.225Z,93396.02
2018-06-11T23:52:53.079Z,93392.75
2018-06-11T23:55:21.879Z,93389.02
2018-06-11T23:57:50.662Z,93393.66
